createdAt,value
2019-03-02T00:00:07.179Z,4.06
2019-03-02T00:01:18.346Z,3.99
2019-03-02T00:02:29.203Z,4.02
2019-03-02T00:03:39.851Z,4
2019-03-02T00:04:51.565Z,4.03
2019-03-02T00:06:03.589Z,4.12
2019-03-02T00:07:16.203Z,4.09
2019-03-02T00:08:27.636Z,4.02
2019-03-02T00:09:39.424Z,4.12
2019-03-02T00:10:50.639Z,3.99
2019-03-02T00:12:01.497Z,4
2019-03-02T00:13:12.434Z,4.13
2019-03-02T00:14:24.141Z,4.1
2019-03-02T00:15:35.667Z,4.04
2019-03-02T00:16:48.227Z,4.12
2019-03-02T00:18:00.004Z,4.04
2019-03-02T00:19:11.706Z,4.06
2019-03-02T00:20:23.029Z,4.04
2019-03-02T00:21:36.288Z,3.99
2019-03-02T00:22:48.506Z,4.09
2019-03-02T00:23:59.215Z,4
2019-03-02T00:25:09.205Z,4.06
2019-03-02T00:26:19.149Z,4.1
2019-03-02T00:27:29.096Z,4.04
2019-03-02T00:28:40.411Z,4.09
2019-03-02T00:29:51.273Z,4
2019-03-02T00:31:02.775Z,4.16
2019-03-02T00:32:14.578Z,4.04
2019-03-02T00:33:25.515Z,4
2019-03-02T00:34:36.626Z,4.04
2019-03-02T00:35:48.588Z,4.03
2019-03-02T00:37:01.007Z,4
2019-03-02T00:38:13.733Z,3.96
2019-03-02T00:39:24.683Z,3.92
2019-03-02T00:40:36.371Z,3.91
2019-03-02T00:41:47.052Z,3.95
2019-03-02T00:42:57.377Z,3.86
2019-03-02T00:44:08.685Z,3.94
2019-03-02T00:45:20.118Z,3.95
2019-03-02T00:46:30.064Z,3.91
2019-03-02T00:47:41.057Z,3.78
2019-03-02T00:48:51.826Z,3.85
2019-03-02T00:50:05.559Z,3.86
2019-03-02T00:51:16.080Z,3.86
2019-03-02T00:52:28.317Z,3.82
2019-03-02T00:53:40.403Z,3.82
2019-03-02T00:55:00.769Z,3.81
2019-03-02T00:56:12.615Z,3.89
2019-03-02T00:57:23.547Z,3.92
2019-03-02T00:58:34.593Z,3.81
2019-03-02T00:59:44.904Z,3.85
2019-03-02T01:00:57.821Z,3.95
2019-03-02T01:02:10.169Z,3.82
2019-03-02T01:03:20.633Z,3.78
2019-03-02T01:04:31.311Z,3.85
2019-03-02T01:05:42.024Z,3.86
2019-03-02T01:06:53.569Z,3.84
2019-03-02T01:08:04.751Z,3.88
2019-03-02T01:09:17.502Z,3.82
2019-03-02T01:10:28.117Z,3.89
2019-03-02T01:11:38.983Z,3.88
2019-03-02T01:12:50.087Z,3.91
2019-03-02T01:14:01.689Z,3.74
2019-03-02T01:15:13.312Z,3.77
2019-03-02T01:16:24.856Z,3.81
2019-03-02T01:17:36.543Z,3.85
2019-03-02T01:18:47.288Z,3.86
2019-03-02T01:19:58.443Z,3.81
2019-03-02T01:21:09.770Z,3.84
2019-03-02T01:22:21.391Z,3.91
2019-03-02T01:23:32.427Z,3.85
2019-03-02T01:24:43.870Z,3.84
2019-03-02T01:25:54.562Z,3.77
2019-03-02T01:27:05.165Z,3.81
2019-03-02T01:28:15.481Z,3.81
2019-03-02T01:29:25.437Z,3.89
2019-03-02T01:30:35.771Z,3.74
2019-03-02T01:31:46.345Z,3.95
2019-03-02T01:32:57.690Z,3.94
2019-03-02T01:34:10.890Z,3.84
2019-03-02T01:35:22.446Z,3.81
2019-03-02T01:36:35.761Z,3.92
2019-03-02T01:37:48.792Z,3.91
2019-03-02T01:38:59.717Z,3.89
2019-03-02T01:40:10.953Z,3.88
2019-03-02T01:41:22.707Z,3.88
2019-03-02T01:42:34.594Z,3.89
2019-03-02T01:43:46.103Z,3.92
2019-03-02T01:44:56.295Z,3.78
2019-03-02T01:46:08.324Z,3.89
2019-03-02T01:47:21.558Z,3.85
2019-03-02T01:48:32.713Z,3.82
2019-03-02T01:49:42.629Z,3.84
2019-03-02T01:50:53.665Z,3.86
2019-03-02T01:52:03.656Z,3.85
2019-03-02T01:53:14.778Z,3.85
2019-03-02T01:54:25.965Z,3.82
2019-03-02T01:55:36.588Z,3.85
2019-03-02T01:56:47.470Z,3.86
2019-03-02T01:57:57.831Z,3.88
2019-03-02T01:59:08.789Z,3.89
2019-03-02T02:00:19.375Z,3.84
2019-03-02T02:01:30.595Z,3.76
2019-03-02T02:02:41.069Z,3.92
2019-03-02T02:03:52.083Z,3.91
2019-03-02T02:05:03.093Z,3.85
2019-03-02T02:06:13.580Z,3.82
2019-03-02T02:07:24.160Z,3.78
2019-03-02T02:08:34.776Z,3.82
2019-03-02T02:09:45.510Z,3.86
2019-03-02T02:10:55.444Z,3.86
2019-03-02T02:12:05.158Z,3.86
2019-03-02T02:13:15.130Z,3.88
2019-03-02T02:14:25.131Z,3.85
2019-03-02T02:15:35.235Z,3.85
2019-03-02T02:16:46.699Z,3.85
2019-03-02T02:17:57.620Z,3.92
2019-03-02T02:19:08.155Z,3.84
2019-03-02T02:20:19.422Z,3.81
2019-03-02T02:21:31.504Z,3.82
2019-03-02T02:22:42.806Z,3.7
2019-03-02T02:23:54.733Z,3.67
2019-03-02T02:25:05.463Z,3.71
2019-03-02T02:26:16.244Z,3.68
2019-03-02T02:27:28.193Z,3.66
2019-03-02T02:28:38.299Z,3.67
2019-03-02T02:29:49.121Z,3.74
2019-03-02T02:31:08.171Z,3.71
2019-03-02T02:32:25.823Z,3.71
2019-03-02T02:33:42.193Z,3.63
2019-03-02T02:34:56.326Z,3.55
2019-03-02T02:36:14.000Z,3.49
2019-03-02T02:37:32.128Z,3.49
2019-03-02T02:38:53.551Z,3.53
2019-03-02T02:40:07.918Z,3.48
2019-03-02T02:41:27.594Z,3.49
2019-03-02T02:42:43.134Z,3.55
2019-03-02T02:44:00.959Z,3.49
2019-03-02T02:45:17.132Z,3.46
2019-03-02T02:46:34.606Z,3.53
2019-03-02T02:47:54.249Z,3.52
2019-03-02T02:49:10.069Z,3.49
2019-03-02T02:50:27.838Z,3.53
2019-03-02T02:51:39.224Z,3.48
2019-03-02T02:52:56.497Z,3.63
2019-03-02T02:54:14.016Z,3.52
2019-03-02T02:55:30.354Z,3.48
2019-03-02T02:56:48.002Z,3.52
2019-03-02T02:58:04.214Z,3.59
2019-03-02T02:59:22.095Z,3.48
2019-03-02T03:00:32.079Z,3.5
2019-03-02T03:01:43.162Z,3.53
2019-03-02T03:02:53.152Z,3.49
2019-03-02T03:04:04.527Z,3.46
2019-03-02T03:05:17.792Z,3.45
2019-03-02T03:06:32.516Z,3.48
2019-03-02T03:07:51.655Z,3.45
2019-03-02T03:09:11.671Z,3.48
2019-03-02T03:10:27.696Z,3.49
2019-03-02T03:11:46.204Z,3.53
2019-03-02T03:13:04.185Z,3.56
2019-03-02T03:14:21.718Z,3.48
2019-03-02T03:15:38.954Z,3.49
2019-03-02T03:16:53.999Z,3.45
2019-03-02T03:18:06.881Z,3.4
2019-03-02T03:19:25.985Z,3.49
2019-03-02T03:20:47.525Z,3.5
2019-03-02T03:22:02.110Z,3.49
2019-03-02T03:23:19.828Z,3.49
2019-03-02T03:24:39.837Z,3.52
2019-03-02T03:25:58.686Z,3.46
2019-03-02T03:27:13.188Z,3.52
2019-03-02T03:28:25.895Z,3.37
2019-03-02T03:29:44.370Z,3.5
2019-03-02T03:30:57.629Z,3.4
2019-03-02T03:32:16.404Z,3.48
2019-03-02T03:33:26.601Z,3.55
2019-03-02T03:34:52.846Z,3.46
2019-03-02T03:36:02.593Z,3.48
2019-03-02T03:37:17.496Z,3.46
2019-03-02T03:38:31.897Z,3.5
2019-03-02T03:39:46.250Z,3.53
2019-03-02T03:41:00.060Z,3.43
2019-03-02T03:42:22.170Z,3.43
2019-03-02T03:43:41.382Z,3.48
2019-03-02T03:44:52.152Z,3.45
2019-03-02T03:46:08.895Z,3.41
2019-03-02T03:47:26.614Z,3.41
2019-03-02T03:48:39.490Z,3.36
2019-03-02T03:49:49.181Z,3.29
2019-03-02T03:50:58.686Z,3.29
2019-03-02T03:52:14.114Z,3.33
2019-03-02T03:53:31.738Z,3.29
2019-03-02T03:54:48.057Z,3.31
2019-03-02T03:56:05.928Z,3.4
2019-03-02T03:57:21.479Z,3.37
2019-03-02T03:58:34.935Z,3.3
2019-03-02T03:59:47.806Z,3.33
2019-03-02T04:01:06.181Z,3.34
2019-03-02T04:02:26.021Z,3.4
2019-03-02T04:03:42.178Z,3.48
2019-03-02T04:04:57.296Z,3.29
2019-03-02T04:06:15.670Z,3.3
2019-03-02T04:07:32.399Z,3.33
2019-03-02T04:08:42.361Z,3.27
2019-03-02T04:09:53.150Z,3.4
2019-03-02T04:11:08.920Z,3.3
2019-03-02T04:12:24.362Z,3.34
2019-03-02T04:13:43.881Z,3.37
2019-03-02T04:14:56.780Z,3.37
2019-03-02T04:16:11.019Z,3.3
2019-03-02T04:17:27.709Z,3.31
2019-03-02T04:18:50.029Z,3.45
2019-03-02T04:20:07.908Z,3.41
2019-03-02T04:21:29.958Z,3.41
2019-03-02T04:22:44.585Z,3.36
2019-03-02T04:24:03.340Z,3.41
2019-03-02T04:25:21.600Z,3.34
2019-03-02T04:26:39.281Z,3.33
2019-03-02T04:27:56.187Z,3.34
2019-03-02T04:29:14.233Z,3.34
2019-03-02T04:30:35.603Z,3.4
2019-03-02T04:31:53.013Z,3.37
2019-03-02T04:33:10.193Z,3.4
2019-03-02T04:34:25.546Z,3.37
2019-03-02T04:35:38.842Z,3.37
2019-03-02T04:36:52.282Z,3.37
2019-03-02T04:38:05.671Z,3.41
2019-03-02T04:39:18.705Z,3.43
2019-03-02T04:40:33.550Z,3.43
2019-03-02T04:41:44.229Z,3.34
2019-03-02T04:42:55.182Z,3.29
2019-03-02T04:44:04.870Z,3.29
2019-03-02T04:45:14.800Z,3.37
2019-03-02T04:46:24.735Z,3.33
2019-03-02T04:47:34.412Z,3.27
2019-03-02T04:48:44.843Z,3.46
2019-03-02T04:49:56.294Z,3.48
2019-03-02T04:51:07.488Z,3.41
2019-03-02T04:52:19.399Z,3.45
2019-03-02T04:53:30.652Z,3.46
2019-03-02T04:54:42.531Z,3.46
2019-03-02T04:55:53.554Z,3.46
2019-03-02T04:57:04.598Z,3.41
2019-03-02T04:58:16.901Z,3.33
2019-03-02T04:59:27.807Z,3.45
2019-03-02T05:00:37.643Z,3.41
2019-03-02T05:01:50.739Z,3.4
2019-03-02T05:03:00.954Z,3.34
2019-03-02T05:04:10.643Z,3.4
2019-03-02T05:05:20.587Z,3.34
2019-03-02T05:06:30.512Z,3.37
2019-03-02T05:07:40.194Z,3.36
2019-03-02T05:08:50.231Z,3.36
2019-03-02T05:10:00.275Z,3.36
2019-03-02T05:11:10.212Z,3.4
2019-03-02T05:12:20.330Z,3.3
2019-03-02T05:13:33.095Z,3.45
2019-03-02T05:14:45.079Z,3.37
2019-03-02T05:15:57.190Z,3.33
2019-03-02T05:17:09.830Z,3.41
2019-03-02T05:18:22.951Z,3.45
2019-03-02T05:19:34.003Z,3.48
2019-03-02T05:20:45.947Z,3.4
2019-03-02T05:21:55.887Z,3.45
2019-03-02T05:23:05.572Z,3.33
2019-03-02T05:24:15.509Z,3.33
2019-03-02T05:25:25.441Z,3.34
2019-03-02T05:26:35.373Z,3.46
2019-03-02T05:27:45.324Z,3.49
2019-03-02T05:28:55.006Z,3.48
2019-03-02T05:30:04.693Z,3.43
2019-03-02T05:31:16.326Z,3.45
2019-03-02T05:32:26.286Z,3.4
2019-03-02T05:33:35.990Z,3.34
2019-03-02T05:34:45.941Z,3.48
2019-03-02T05:35:56.297Z,3.49
2019-03-02T05:37:07.859Z,3.45
2019-03-02T05:38:20.110Z,3.41
2019-03-02T05:39:29.804Z,3.33
2019-03-02T05:40:39.256Z,3.45
2019-03-02T05:41:49.186Z,3.45
2019-03-02T05:43:00.844Z,3.52
2019-03-02T05:44:10.293Z,3.48
2019-03-02T05:45:23.741Z,3.45
2019-03-02T05:46:34.619Z,3.46
2019-03-02T05:47:44.333Z,3.46
2019-03-02T05:48:53.777Z,3.49
2019-03-02T05:50:03.466Z,3.48
2019-03-02T05:51:12.916Z,3.52
2019-03-02T05:52:23.521Z,3.49
2019-03-02T05:53:35.127Z,3.49
2019-03-02T05:54:46.481Z,3.48
2019-03-02T05:55:58.707Z,3.52
2019-03-02T05:57:09.743Z,3.52
2019-03-02T05:58:21.652Z,3.55
2019-03-02T05:59:32.387Z,3.59
2019-03-02T06:00:43.507Z,3.52
2019-03-02T06:01:53.544Z,3.64
2019-03-02T06:03:03.245Z,3.55
2019-03-02T06:04:13.193Z,3.63
2019-03-02T06:05:27.373Z,3.59
2019-03-02T06:06:37.107Z,3.58
2019-03-02T06:07:46.832Z,3.59
2019-03-02T06:08:59.185Z,3.63
2019-03-02T06:10:09.156Z,3.64
2019-03-02T06:11:21.314Z,3.5
2019-03-02T06:12:30.763Z,3.66
2019-03-02T06:13:40.720Z,3.59
2019-03-02T06:14:50.678Z,3.55
2019-03-02T06:16:00.611Z,3.53
2019-03-02T06:17:10.314Z,3.59
2019-03-02T06:18:20.250Z,3.59
2019-03-02T06:19:30.181Z,3.68
2019-03-02T06:20:41.227Z,3.64
2019-03-02T06:21:52.055Z,3.67
2019-03-02T06:23:02.009Z,3.67
2019-03-02T06:24:11.707Z,3.67
2019-03-02T06:25:26.242Z,3.68
2019-03-02T06:26:38.046Z,3.67
2019-03-02T06:27:51.771Z,3.71
2019-03-02T06:29:02.721Z,3.67
2019-03-02T06:30:13.503Z,3.71
2019-03-02T06:31:23.955Z,3.67
2019-03-02T06:32:35.995Z,3.67
2019-03-02T06:33:48.807Z,3.7
2019-03-02T06:35:00.609Z,3.64
2019-03-02T06:36:13.803Z,3.74
2019-03-02T06:37:24.912Z,3.68
2019-03-02T06:38:36.836Z,3.68
2019-03-02T06:39:49.287Z,3.82
2019-03-02T06:41:02.924Z,3.81
2019-03-02T06:42:14.863Z,3.78
2019-03-02T06:43:26.630Z,3.84
2019-03-02T06:44:39.121Z,3.74
2019-03-02T06:45:49.171Z,3.74
2019-03-02T06:47:00.759Z,3.84
2019-03-02T06:48:14.343Z,3.86
2019-03-02T06:49:25.731Z,3.84
2019-03-02T06:50:38.170Z,3.71
2019-03-02T06:51:50.517Z,3.84
2019-03-02T06:53:03.724Z,3.81
2019-03-02T06:54:17.356Z,3.82
2019-03-02T06:55:30.271Z,3.78
2019-03-02T06:56:43.260Z,3.81
2019-03-02T06:58:02.567Z,3.82
2019-03-02T06:59:12.499Z,3.85
2019-03-02T07:00:22.191Z,3.86
2019-03-02T07:01:31.891Z,3.78
2019-03-02T07:02:41.817Z,3.88
2019-03-02T07:03:51.758Z,3.94
2019-03-02T07:05:02.680Z,3.89
2019-03-02T07:06:14.154Z,3.81
2019-03-02T07:07:26.743Z,3.86
2019-03-02T07:08:38.812Z,3.91
2019-03-02T07:09:50.225Z,3.84
2019-03-02T07:11:02.815Z,3.88
2019-03-02T07:12:14.343Z,3.82
2019-03-02T07:13:27.098Z,3.82
2019-03-02T07:14:36.935Z,3.86
2019-03-02T07:15:49.549Z,3.86
2019-03-02T07:17:00.815Z,3.86
2019-03-02T07:18:12.680Z,3.86
2019-03-02T07:19:22.615Z,3.85
2019-03-02T07:20:33.046Z,3.96
2019-03-02T07:21:46.341Z,3.95
2019-03-02T07:22:57.283Z,3.94
2019-03-02T07:24:06.968Z,3.89
2019-03-02T07:25:17.152Z,3.89
2019-03-02T07:26:27.094Z,3.88
2019-03-02T07:27:37.037Z,3.85
2019-03-02T07:28:47.757Z,3.84
2019-03-02T07:29:58.541Z,3.88
2019-03-02T07:31:08.494Z,3.95
2019-03-02T07:32:18.474Z,3.92
2019-03-02T07:33:28.170Z,3.95
2019-03-02T07:34:40.656Z,4.03
2019-03-02T07:35:55.359Z,3.96
2019-03-02T07:37:09.076Z,4.03
2019-03-02T07:38:22.959Z,3.96
2019-03-02T07:39:38.946Z,4
2019-03-02T07:40:50.164Z,4
2019-03-02T07:42:02.849Z,4.09
2019-03-02T07:43:14.649Z,4.04
2019-03-02T07:44:27.152Z,4.03
2019-03-02T07:45:39.873Z,3.99
2019-03-02T07:46:52.894Z,4.12
2019-03-02T07:48:05.112Z,4.18
2019-03-02T07:49:17.922Z,4.25
2019-03-02T07:50:32.186Z,4.2
2019-03-02T07:51:44.084Z,4.18
2019-03-02T07:52:55.478Z,4.2
2019-03-02T07:54:08.495Z,4.24
2019-03-02T07:55:22.513Z,4.34
2019-03-02T07:56:34.970Z,4.28
2019-03-02T07:57:46.291Z,4.21
2019-03-02T07:58:57.359Z,4.27
2019-03-02T08:00:10.165Z,4.22
2019-03-02T08:01:21.535Z,4.27
2019-03-02T08:02:34.509Z,4.25
2019-03-02T08:03:44.455Z,4.28
2019-03-02T08:04:54.427Z,4.24
2019-03-02T08:06:06.176Z,4.25
2019-03-02T08:07:16.144Z,4.24
2019-03-02T08:08:25.335Z,4.28
2019-03-02T08:09:35.033Z,4.3
2019-03-02T08:10:44.698Z,4.3
2019-03-02T08:11:54.750Z,4.38
2019-03-02T08:13:06.221Z,4.28
2019-03-02T08:14:18.605Z,4.43
2019-03-02T08:15:29.421Z,4.43
2019-03-02T08:16:42.574Z,4.42
2019-03-02T08:17:54.094Z,4.4
2019-03-02T08:19:06.409Z,4.43
2019-03-02T08:20:16.536Z,4.46
2019-03-02T08:21:32.397Z,4.53
2019-03-02T08:22:46.222Z,4.56
2019-03-02T08:23:56.328Z,4.48
2019-03-02T08:25:06.272Z,4.58
2019-03-02T08:26:16.208Z,4.5
2019-03-02T08:27:30.757Z,4.61
2019-03-02T08:28:45.769Z,4.58
2019-03-02T08:29:59.928Z,4.61
2019-03-02T08:31:11.469Z,4.66
2019-03-02T08:32:23.677Z,4.66
2019-03-02T08:33:45.405Z,4.66
2019-03-02T08:34:55.601Z,4.61
2019-03-02T08:36:05.061Z,4.74
2019-03-02T08:37:21.745Z,4.57
2019-03-02T08:38:35.667Z,4.68
2019-03-02T08:39:49.185Z,4.58
2019-03-02T08:41:02.941Z,4.74
2019-03-02T08:42:15.489Z,4.71
2019-03-02T08:43:25.185Z,4.7
2019-03-02T08:44:35.077Z,4.74
2019-03-02T08:45:44.818Z,4.71
2019-03-02T08:46:54.512Z,4.9
2019-03-02T08:48:04.862Z,4.83
2019-03-02T08:49:14.627Z,4.79
2019-03-02T08:50:24.614Z,4.9
2019-03-02T08:51:34.309Z,4.86
2019-03-02T08:52:44.260Z,4.87
2019-03-02T08:53:53.711Z,4.9
2019-03-02T08:55:03.649Z,4.98
2019-03-02T08:56:16.725Z,4.89
2019-03-02T08:57:28.112Z,4.92
2019-03-02T08:58:38.048Z,4.98
2019-03-02T08:59:47.738Z,4.97
2019-03-02T09:00:57.684Z,5.02
2019-03-02T09:02:07.391Z,5.01
2019-03-02T09:03:17.394Z,4.97
2019-03-02T09:04:27.083Z,5.04
2019-03-02T09:05:55.456Z,5.02
2019-03-02T09:07:07.719Z,5.15
2019-03-02T09:08:18.961Z,5.15
2019-03-02T09:09:28.915Z,5.12
2019-03-02T09:10:39.548Z,5.01
2019-03-02T09:11:51.194Z,5.1
2019-03-02T09:13:04.396Z,5.12
2019-03-02T09:14:16.893Z,5.2
2019-03-02T09:15:32.370Z,5.1
2019-03-02T09:16:44.912Z,5.13
2019-03-02T09:18:00.301Z,5.18
2019-03-02T09:19:10.280Z,5.19
2019-03-02T09:20:22.156Z,5.16
2019-03-02T09:21:32.132Z,5.28
2019-03-02T09:22:41.812Z,5.22
2019-03-02T09:23:54.141Z,5.19
2019-03-02T09:25:04.111Z,5.29
2019-03-02T09:26:14.956Z,5.28
2019-03-02T09:27:24.997Z,5.33
2019-03-02T09:28:35.432Z,5.33
2019-03-02T09:29:45.375Z,5.36
2019-03-02T09:30:58.722Z,5.28
2019-03-02T09:32:14.078Z,5.29
2019-03-02T09:33:28.622Z,5.29
2019-03-02T09:34:42.965Z,5.28
2019-03-02T09:35:59.823Z,5.31
2019-03-02T09:37:12.030Z,5.36
2019-03-02T09:38:25.829Z,5.37
2019-03-02T09:39:39.837Z,5.47
2019-03-02T09:40:51.587Z,5.51
2019-03-02T09:42:04.039Z,5.47
2019-03-02T09:43:16.139Z,5.47
2019-03-02T09:44:26.347Z,5.41
2019-03-02T09:45:38.100Z,5.49
2019-03-02T09:46:50.124Z,5.46
2019-03-02T09:47:59.886Z,5.41
2019-03-02T09:49:12.144Z,5.52
2019-03-02T09:50:24.158Z,5.4
2019-03-02T09:51:33.850Z,5.44
2019-03-02T09:52:45.712Z,5.43
2019-03-02T09:53:55.776Z,5.52
2019-03-02T09:55:05.725Z,5.58
2019-03-02T09:56:16.017Z,5.58
2019-03-02T09:57:26.108Z,5.52
2019-03-02T09:58:37.230Z,5.62
2019-03-02T09:59:50.249Z,5.56
2019-03-02T10:01:06.997Z,5.62
2019-03-02T10:02:19.330Z,5.72
2019-03-02T10:03:32.459Z,5.67
2019-03-02T10:04:44.232Z,5.62
2019-03-02T10:05:54.834Z,5.64
2019-03-02T10:07:06.960Z,5.73
2019-03-02T10:08:18.271Z,5.64
2019-03-02T10:09:31.358Z,5.72
2019-03-02T10:10:41.452Z,5.69
2019-03-02T10:11:51.154Z,5.7
2019-03-02T10:13:00.604Z,5.7
2019-03-02T10:14:10.561Z,5.64
2019-03-02T10:15:21.900Z,5.67
2019-03-02T10:16:31.351Z,5.69
2019-03-02T10:17:42.962Z,5.64
2019-03-02T10:18:54.731Z,5.61
2019-03-02T10:20:09.363Z,5.65
2019-03-02T10:21:19.059Z,5.72
2019-03-02T10:22:29.022Z,5.67
2019-03-02T10:23:44.512Z,5.72
2019-03-02T10:24:55.729Z,5.7
2019-03-02T10:26:10.046Z,5.7
2019-03-02T10:27:23.560Z,5.65
2019-03-02T10:28:36.176Z,5.61
2019-03-02T10:29:50.833Z,5.72
2019-03-02T10:31:02.482Z,5.74
2019-03-02T10:32:13.808Z,5.77
2019-03-02T10:33:24.851Z,5.77
2019-03-02T10:34:41.844Z,5.83
2019-03-02T10:35:55.812Z,5.88
2019-03-02T10:37:09.783Z,5.84
2019-03-02T10:38:23.918Z,5.9
2019-03-02T10:39:37.602Z,5.9
2019-03-02T10:40:49.378Z,5.9
2019-03-02T10:42:03.034Z,5.94
2019-03-02T10:43:15.361Z,5.98
2019-03-02T10:44:26.183Z,6.01
2019-03-02T10:45:35.943Z,5.95
2019-03-02T10:46:45.913Z,6.06
2019-03-02T10:47:56.623Z,6.06
2019-03-02T10:49:09.875Z,6.02
2019-03-02T10:50:25.860Z,6.13
2019-03-02T10:51:40.027Z,6.05
2019-03-02T10:52:51.453Z,5.99
2019-03-02T10:54:04.559Z,6.02
2019-03-02T10:55:17.824Z,5.98
2019-03-02T10:56:29.342Z,6.01
2019-03-02T10:57:39.310Z,6.07
2019-03-02T10:58:49.003Z,6.06
2019-03-02T10:59:58.947Z,6.01
2019-03-02T11:01:12.166Z,6.01
2019-03-02T11:02:25.843Z,5.97
2019-03-02T11:03:36.581Z,5.94
2019-03-02T11:04:49.387Z,5.95
2019-03-02T11:06:01.886Z,6.06
2019-03-02T11:07:15.144Z,5.97
2019-03-02T11:08:28.803Z,6.06
2019-03-02T11:09:42.199Z,5.99
2019-03-02T11:10:54.837Z,6.13
2019-03-02T11:12:09.026Z,6.05
2019-03-02T11:13:21.883Z,5.97
2019-03-02T11:14:34.489Z,5.98
2019-03-02T11:15:48.411Z,6.07
2019-03-02T11:17:01.524Z,6.07
2019-03-02T11:18:11.599Z,6.05
2019-03-02T11:19:21.584Z,5.98
2019-03-02T11:20:31.523Z,6.06
2019-03-02T11:21:40.959Z,6.13
2019-03-02T11:22:50.639Z,6.09
2019-03-02T11:24:02.413Z,6.09
2019-03-02T11:25:12.378Z,6.01
2019-03-02T11:26:22.327Z,6.16
2019-03-02T11:27:32.275Z,6.06
2019-03-02T11:28:41.965Z,6.02
2019-03-02T11:29:55.959Z,6.01
2019-03-02T11:31:05.930Z,5.98
2019-03-02T11:32:20.288Z,5.99
2019-03-02T11:33:33.580Z,5.99
2019-03-02T11:34:43.525Z,6.06
2019-03-02T11:35:53.470Z,6.07
2019-03-02T11:37:03.426Z,6.05
2019-03-02T11:38:13.375Z,6.12
2019-03-02T11:39:23.077Z,6.15
2019-03-02T11:40:35.637Z,6.17
2019-03-02T11:41:45.328Z,6.1
2019-03-02T11:42:55.025Z,6.13
2019-03-02T11:44:07.165Z,6.16
2019-03-02T11:45:17.047Z,6.17
2019-03-02T11:46:26.998Z,6.15
2019-03-02T11:47:38.831Z,6.15
2019-03-02T11:48:59.416Z,6.07
2019-03-02T11:50:10.730Z,6.09
2019-03-02T11:51:23.933Z,6.05
2019-03-02T11:52:38.533Z,6.07
2019-03-02T11:53:51.988Z,6.07
2019-03-02T11:55:08.725Z,6.17
2019-03-02T11:56:29.909Z,6.15
2019-03-02T11:57:39.848Z,6.15
2019-03-02T11:58:49.798Z,6.13
2019-03-02T12:00:02.165Z,6.15
2019-03-02T12:01:12.115Z,6.09
2019-03-02T12:02:26.348Z,6.12
2019-03-02T12:03:38.973Z,6.22
2019-03-02T12:04:52.168Z,6.29
2019-03-02T12:06:07.938Z,6.22
2019-03-02T12:07:17.907Z,6.25
2019-03-02T12:08:28.329Z,6.32
2019-03-02T12:09:37.791Z,6.28
2019-03-02T12:10:47.731Z,6.34
2019-03-02T12:11:57.430Z,6.35
2019-03-02T12:13:08.601Z,6.38
2019-03-02T12:14:18.575Z,6.34
2019-03-02T12:15:29.804Z,6.39
2019-03-02T12:16:40.723Z,6.39
2019-03-02T12:17:50.685Z,6.5
2019-03-02T12:19:05.069Z,6.56
2019-03-02T12:20:16.789Z,6.6
2019-03-02T12:21:26.972Z,6.6
2019-03-02T12:22:39.284Z,6.75
2019-03-02T12:23:48.736Z,6.68
2019-03-02T12:25:00.919Z,6.67
2019-03-02T12:26:13.500Z,6.68
2019-03-02T12:27:26.949Z,6.72
2019-03-02T12:28:40.117Z,6.83
2019-03-02T12:29:51.921Z,6.72
2019-03-02T12:31:01.632Z,6.74
2019-03-02T12:32:12.494Z,6.71
2019-03-02T12:33:25.573Z,6.62
2019-03-02T12:34:39.197Z,6.54
2019-03-02T12:35:49.173Z,6.57
2019-03-02T12:36:59.376Z,6.57
2019-03-02T12:38:15.269Z,6.62
2019-03-02T12:39:28.887Z,6.6
2019-03-02T12:40:42.447Z,6.59
2019-03-02T12:41:55.195Z,6.68
2019-03-02T12:43:10.024Z,6.72
2019-03-02T12:44:23.896Z,6.7
2019-03-02T12:45:36.317Z,6.6
2019-03-02T12:46:47.863Z,6.56
2019-03-02T12:48:05.079Z,6.62
2019-03-02T12:49:15.966Z,6.56
2019-03-02T12:50:28.249Z,6.52
2019-03-02T12:51:42.007Z,6.57
2019-03-02T12:52:54.280Z,6.56
2019-03-02T12:54:07.451Z,6.53
2019-03-02T12:55:20.464Z,6.6
2019-03-02T12:56:35.444Z,6.53
2019-03-02T12:57:50.385Z,6.59
2019-03-02T12:59:06.414Z,6.56
2019-03-02T13:00:16.373Z,6.53
2019-03-02T13:01:26.325Z,6.56
2019-03-02T13:02:39.000Z,6.71
2019-03-02T13:03:53.255Z,6.67
2019-03-02T13:05:02.743Z,6.75
2019-03-02T13:06:12.710Z,6.71
2019-03-02T13:07:22.655Z,6.82
2019-03-02T13:08:34.643Z,6.86
2019-03-02T13:09:45.818Z,6.82
2019-03-02T13:10:58.386Z,6.92
2019-03-02T13:12:12.212Z,6.89
2019-03-02T13:13:25.640Z,6.93
2019-03-02T13:14:38.705Z,6.95
2019-03-02T13:15:50.978Z,6.9
2019-03-02T13:17:06.092Z,6.87
2019-03-02T13:18:18.765Z,6.85
2019-03-02T13:19:31.677Z,6.8
2019-03-02T13:20:44.223Z,6.93
2019-03-02T13:21:56.482Z,6.85
2019-03-02T13:23:09.149Z,6.8
2019-03-02T13:24:22.684Z,6.72
2019-03-02T13:25:36.832Z,6.65
2019-03-02T13:26:51.025Z,6.64
2019-03-02T13:28:05.088Z,6.65
2019-03-02T13:29:18.906Z,6.77
2019-03-02T13:30:32.068Z,6.65
2019-03-02T13:31:46.267Z,6.77
2019-03-02T13:32:58.514Z,6.67
2019-03-02T13:34:11.532Z,6.7
2019-03-02T13:35:25.923Z,6.8
2019-03-02T13:36:35.384Z,6.85
2019-03-02T13:37:52.938Z,6.74
2019-03-02T13:39:14.302Z,6.7
2019-03-02T13:40:33.722Z,6.6
2019-03-02T13:41:46.401Z,6.57
2019-03-02T13:42:56.985Z,6.71
2019-03-02T13:44:12.262Z,6.72
2019-03-02T13:45:24.051Z,6.7
2019-03-02T13:46:37.434Z,6.6
2019-03-02T13:47:51.298Z,6.6
2019-03-02T13:49:04.284Z,6.6
2019-03-02T13:50:16.474Z,6.59
2019-03-02T13:51:32.696Z,6.62
2019-03-02T13:52:48.303Z,6.54
2019-03-02T13:54:05.449Z,6.43
2019-03-02T13:55:18.446Z,6.38
2019-03-02T13:56:32.542Z,6.52
2019-03-02T13:57:44.480Z,6.36
2019-03-02T13:58:57.399Z,6.53
2019-03-02T14:00:10.391Z,6.44
2019-03-02T14:01:25.213Z,6.46
2019-03-02T14:02:38.226Z,6.47
2019-03-02T14:03:53.669Z,6.53
2019-03-02T14:05:09.829Z,6.52
2019-03-02T14:06:23.278Z,6.54
2019-03-02T14:07:36.136Z,6.6
2019-03-02T14:08:48.390Z,6.59
2019-03-02T14:09:58.337Z,6.57
2019-03-02T14:11:08.311Z,6.59
2019-03-02T14:12:22.403Z,6.71
2019-03-02T14:13:35.191Z,6.59
2019-03-02T14:14:47.351Z,6.59
2019-03-02T14:16:02.053Z,6.57
2019-03-02T14:17:14.366Z,6.56
2019-03-02T14:18:28.399Z,6.6
2019-03-02T14:19:41.425Z,6.62
2019-03-02T14:20:57.802Z,6.53
2019-03-02T14:22:11.263Z,6.49
2019-03-02T14:23:25.982Z,6.59
2019-03-02T14:24:46.848Z,6.65
2019-03-02T14:26:02.795Z,6.6
2019-03-02T14:27:12.508Z,6.74
2019-03-02T14:28:22.264Z,6.71
2019-03-02T14:29:35.691Z,6.67
2019-03-02T14:30:48.246Z,6.7
2019-03-02T14:32:02.269Z,6.72
2019-03-02T14:33:15.476Z,6.82
2019-03-02T14:34:24.927Z,6.82
2019-03-02T14:35:37.142Z,6.95
2019-03-02T14:36:46.773Z,6.95
2019-03-02T14:37:56.754Z,6.86
2019-03-02T14:39:07.584Z,6.85
2019-03-02T14:40:19.522Z,6.83
2019-03-02T14:41:33.709Z,6.85
2019-03-02T14:42:45.677Z,6.86
2019-03-02T14:43:59.744Z,6.95
2019-03-02T14:45:12.291Z,7.03
2019-03-02T14:46:25.896Z,7.08
2019-03-02T14:47:38.868Z,7.03
2019-03-02T14:48:51.845Z,6.92
2019-03-02T14:50:08.308Z,6.86
2019-03-02T14:51:20.570Z,6.77
2019-03-02T14:52:35.871Z,6.62
2019-03-02T14:53:47.733Z,6.53
2019-03-02T14:54:59.398Z,6.57
2019-03-02T14:56:13.781Z,6.7
2019-03-02T14:57:27.217Z,6.72
2019-03-02T14:58:40.124Z,6.85
2019-03-02T14:59:52.844Z,6.85
2019-03-02T15:01:07.110Z,6.82
2019-03-02T15:02:19.146Z,6.87
2019-03-02T15:03:33.938Z,6.9
2019-03-02T15:04:47.781Z,6.85
2019-03-02T15:06:08.509Z,6.9
2019-03-02T15:07:24.904Z,6.95
2019-03-02T15:08:39.861Z,6.86
2019-03-02T15:09:52.183Z,6.93
2019-03-02T15:11:06.031Z,6.87
2019-03-02T15:12:18.594Z,6.78
2019-03-02T15:13:32.046Z,6.86
2019-03-02T15:14:45.042Z,6.85
2019-03-02T15:15:58.621Z,6.87
2019-03-02T15:17:12.167Z,6.86
2019-03-02T15:18:30.486Z,6.75
2019-03-02T15:19:58.504Z,6.77
2019-03-02T15:21:11.426Z,6.74
2019-03-02T15:22:26.797Z,6.68
2019-03-02T15:23:41.941Z,6.59
2019-03-02T15:24:55.891Z,6.56
2019-03-02T15:26:08.889Z,6.62
2019-03-02T15:27:24.581Z,6.56
2019-03-02T15:28:40.253Z,6.59
2019-03-02T15:29:52.865Z,6.59
2019-03-02T15:31:08.594Z,6.68
2019-03-02T15:32:22.955Z,6.62
2019-03-02T15:33:37.702Z,6.67
2019-03-02T15:34:57.799Z,6.7
2019-03-02T15:36:10.956Z,6.7
2019-03-02T15:37:24.160Z,6.59
2019-03-02T15:38:36.083Z,6.59
2019-03-02T15:39:53.446Z,6.56
2019-03-02T15:41:05.180Z,6.5
2019-03-02T15:42:21.203Z,6.43
2019-03-02T15:43:34.720Z,6.36
2019-03-02T15:44:49.194Z,6.46
2019-03-02T15:46:03.120Z,6.46
2019-03-02T15:47:16.422Z,6.5
2019-03-02T15:48:29.678Z,6.53
2019-03-02T15:49:42.783Z,6.36
2019-03-02T15:50:56.966Z,6.39
2019-03-02T15:52:10.367Z,6.47
2019-03-02T15:53:22.970Z,6.38
2019-03-02T15:54:36.521Z,6.35
2019-03-02T15:55:52.479Z,6.35
2019-03-02T15:57:07.405Z,6.53
2019-03-02T15:58:23.213Z,6.41
2019-03-02T15:59:40.390Z,6.44
2019-03-02T16:00:54.812Z,6.39
2019-03-02T16:02:06.821Z,6.41
2019-03-02T16:03:21.830Z,6.36
2019-03-02T16:04:39.061Z,6.31
2019-03-02T16:05:54.898Z,6.26
2019-03-02T16:07:06.963Z,6.26
2019-03-02T16:08:20.508Z,6.29
2019-03-02T16:09:35.453Z,6.26